Time;durP1;ratioP1;P1;durP2;ratioP2;P2;SDS_P1;SDS_P2;PMS_P1;PMS_P2;Temp;Humidity;BMP_temperature;BMP_pressure;BME280_temperature;BME280_humidity;BME280_pressure;Samples;Min_cycle;Max_cycle;Signal;HPM_P1;HPM_P2
2023/08/27 00:02:14;;;;;;;8.00;6.90;;;;;;;18.49;91.09;96862.33;104671;1255;101374;-80
2023/08/27 00:04:42;;;;;;;10.10;7.40;;;;;;;18.55;90.07;96909.61;104744;1258;99003;-80
2023/08/27 00:07:10;;;;;;;8.60;7.70;;;;;;;18.62;89.33;96936.04;104745;1255;97523;-80
2023/08/27 00:09:38;;;;;;;8.30;7.10;;;;;;;18.68;89.22;96885.14;104770;1258;98477;-74
2023/08/27 00:12:06;;;;;;;9.30;7.20;;;;;;;18.72;88.98;96842.09;104797;1256;102224;-74
2023/08/27 00:14:33;;;;;;;11.90;7.50;;;;;;;18.77;88.66;96810.54;104695;1261;101126;-74
2023/08/27 00:17:03;;;;;;;8.70;7.10;;;;;;;18.79;88.87;96800.48;104764;1258;98988;-82
2023/08/27 00:19:31;;;;;;;10.00;7.40;;;;;;;18.79;88.55;96847.66;104808;1258;96755;-86
2023/08/27 00:21:58;;;;;;;8.70;6.90;;;;;;;18.81;88.28;96894.70;104767;1267;97100;-83
2023/08/27 00:24:26;;;;;;;10.30;7.50;;;;;;;18.85;88.16;96841.67;104734;1258;100995;-83
2023/08/27 00:26:54;;;;;;;8.20;6.70;;;;;;;18.87;88.07;96781.79;104837;1258;101551;-76
2023/08/27 00:29:21;;;;;;;9.30;7.10;;;;;;;18.89;87.98;96760.94;104757;1260;99953;-85
2023/08/27 00:31:49;;;;;;;10.30;7.50;;;;;;;18.91;87.89;96766.30;104698;1260;96618;-75
2023/08/27 00:34:17;;;;;;;9.40;7.40;;;;;;;18.89;88.23;96753.07;104662;1259;97107;-75
2023/08/27 00:36:44;;;;;;;8.90;7.00;;;;;;;18.87;88.01;96753.95;104766;1261;102170;-76
2023/08/27 00:39:12;;;;;;;9.60;7.60;;;;;;;18.88;87.97;96758.54;104719;1258;100520;-75
2023/08/27 00:41:40;;;;;;;11.50;7.70;;;;;;;18.89;88.00;96788.63;104676;1262;99930;-76
2023/08/27 00:44:08;;;;;;;9.00;7.90;;;;;;;18.89;88.13;96813.51;104767;1258;97543;-76
2023/08/27 00:46:35;;;;;;;10.10;7.70;;;;;;;18.88;88.09;96805.74;104819;1260;97012;-75
2023/08/27 00:49:03;;;;;;;8.50;7.60;;;;;;;18.88;87.99;96807.38;104686;1269;101326;-85
2023/08/27 00:51:33;;;;;;;13.90;8.90;;;;;;;18.89;88.21;96834.99;104745;1271;101440;-86
2023/08/27 00:54:00;;;;;;;12.00;8.20;;;;;;;18.90;88.08;96898.02;104677;1269;100146;-86
2023/08/27 00:56:28;;;;;;;12.00;8.80;;;;;;;18.91;88.02;96934.65;104686;1268;96591;-88
2023/08/27 00:58:56;;;;;;;9.00;7.40;;;;;;;18.92;88.07;96984.87;104680;1260;98231;-87
2023/08/27 01:01:24;;;;;;;10.00;8.00;;;;;;;18.93;88.27;96968.78;104893;1258;101516;-76
2023/08/27 01:03:52;;;;;;;15.90;7.80;;;;;;;18.89;89.05;96914.63;104696;1255;101409;-76
2023/08/27 01:06:20;;;;;;;11.30;7.40;;;;;;;18.82;89.98;96917.60;104724;1258;98747;-84
2023/08/27 01:09:12;;;;;;;9.60;7.40;;;;;;;18.77;89.87;96976.38;104781;1258;97983;-82
2023/08/27 01:11:43;;;;;;;12.20;8.00;;;;;;;18.74;90.77;97002.80;104670;1256;96572;-82
2023/08/27 01:14:11;;;;;;;14.30;7.90;;;;;;;18.69;90.79;96955.63;104697;1255;102518;-82
2023/08/27 01:16:40;;;;;;;9.30;8.10;;;;;;;18.64;90.99;96882.67;104771;1261;101389;-75
2023/08/27 01:19:15;;;;;;;13.20;8.30;;;;;;;18.61;90.42;96849.21;104800;1260;100167;-75
2023/08/27 01:21:44;;;;;;;14.30;10.00;;;;;;;18.60;90.49;96855.40;104642;1262;96833;-75
2023/08/27 01:24:12;;;;;;;12.20;8.20;;;;;;;18.59;90.35;96847.59;104819;1259;97531;-74
2023/08/27 01:26:46;;;;;;;9.70;7.90;;;;;;;18.60;90.30;96821.67;104815;1258;101244;-87
2023/08/27 01:29:27;;;;;;;9.00;7.80;;;;;;;18.61;90.74;96834.73;104749;1261;101350;-85
2023/08/27 01:32:17;;;;;;;11.20;7.80;;;;;;;18.56;91.36;96834.18;104680;1263;100259;-87
2023/08/27 01:34:47;;;;;;;10.40;8.30;;;;;;;18.48;91.98;96839.11;104743;1261;96799;-87
2023/08/27 01:37:14;;;;;;;10.10;8.10;;;;;;;18.44;91.55;96858.41;104788;1271;97047;-87
2023/08/27 01:39:43;;;;;;;11.40;7.80;;;;;;;18.44;91.35;96864.80;104657;1261;102307;-87
2023/08/27 01:42:13;;;;;;;13.80;8.30;;;;;;;18.43;91.35;96841.57;104702;1259;108482;-87
2023/08/27 01:44:40;;;;;;;8.60;7.70;;;;;;;18.41;91.27;96799.48;104830;1260;98318;-75
2023/08/27 01:47:08;;;;;;;10.60;7.40;;;;;;;18.40;91.32;96770.85;104667;1258;96835;-75
2023/08/27 01:49:36;;;;;;;9.70;7.80;;;;;;;18.41;91.32;96749.00;104726;1260;98265;-75
2023/08/27 01:52:04;;;;;;;9.60;7.20;;;;;;;18.42;91.36;96732.38;104622;1261;102336;-75
2023/08/27 01:54:34;;;;;;;10.10;6.60;;;;;;;18.42;91.26;96743.42;104657;1262;101317;-75
2023/08/27 01:57:03;;;;;;;7.70;6.70;;;;;;;18.43;91.27;96796.77;104668;1271;99319;-74
2023/08/27 01:59:31;;;;;;;7.70;7.00;;;;;;;18.45;91.35;96802.33;104709;1264;96829;-75
2023/08/27 02:01:58;;;;;;;7.80;7.00;;;;;;;18.42;91.65;96788.78;104659;1257;123448;-75
2023/08/27 02:04:28;;;;;;;9.10;7.00;;;;;;;18.38;91.67;96782.60;104729;1259;101260;-74
2023/08/27 02:06:56;;;;;;;8.70;6.90;;;;;;;18.36;91.69;96776.47;104769;1256;101164;-75
2023/08/27 02:09:24;;;;;;;11.30;6.90;;;;;;;18.38;91.98;96771.40;104708;1272;99276;-75
2023/08/27 02:11:51;;;;;;;9.30;7.30;;;;;;;18.36;92.12;96756.05;104688;1258;96925;-75
2023/08/27 02:14:19;;;;;;;8.80;6.70;;;;;;;18.34;91.91;96751.14;104705;1261;97012;-75
2023/08/27 02:16:47;;;;;;;11.00;6.90;;;;;;;18.34;91.95;96753.55;104502;1274;110209;-75
2023/08/27 02:19:15;;;;;;;8.10;6.90;;;;;;;18.35;92.06;96745.89;104471;1274;100370;-75
2023/08/27 02:21:42;;;;;;;11.30;7.30;;;;;;;18.35;92.01;96743.04;104507;1259;99788;-75
2023/08/27 02:24:10;;;;;;;8.10;7.30;;;;;;;18.38;92.22;96738.29;104502;1264;97718;-75
2023/08/27 02:26:38;;;;;;;10.40;7.30;;;;;;;18.40;92.11;96747.56;104496;1273;96663;-76
2023/08/27 02:29:05;;;;;;;9.80;7.60;;;;;;;18.38;92.25;96747.02;104529;1262;102169;-75
2023/08/27 02:31:33;;;;;;;11.20;8.00;;;;;;;18.34;92.20;96742.17;104515;1261;100723;-75
2023/08/27 02:34:01;;;;;;;10.90;8.60;;;;;;;18.36;92.37;96733.48;104553;1258;98951;-75
2023/08/27 02:36:28;;;;;;;10.60;7.50;;;;;;;18.35;92.69;96739.77;104547;1258;97318;-75
2023/08/27 02:38:56;;;;;;;8.60;7.70;;;;;;;18.30;92.79;96733.66;104619;1261;97035;-75
2023/08/27 02:41:24;;;;;;;8.80;8.00;;;;;;;18.27;92.76;96751.42;104567;1262;102128;-76
2023/08/27 02:43:51;;;;;;;8.60;7.70;;;;;;;18.30;92.91;96766.12;104601;1261;100803;-76
2023/08/27 02:46:19;;;;;;;10.30;8.80;;;;;;;18.30;93.27;96769.19;104437;1259;100195;-76
2023/08/27 02:48:47;;;;;;;10.80;8.60;;;;;;;18.26;93.52;96738.15;104552;1260;97243;-75
2023/08/27 02:51:15;;;;;;;13.60;7.90;;;;;;;18.24;93.22;96692.95;104529;1259;98075;-75
2023/08/27 02:53:42;;;;;;;9.70;8.70;;;;;;;18.26;93.33;96701.70;104531;1261;102672;-77
2023/08/27 02:56:10;;;;;;;12.70;9.20;;;;;;;18.25;93.49;96721.31;104696;1262;108506;-76
2023/08/27 02:58:38;;;;;;;17.70;9.70;;;;;;;18.25;93.99;96715.09;104651;1261;99890;-76
2023/08/27 03:01:05;;;;;;;11.60;9.00;;;;;;;18.21;94.42;96659.71;104838;1257;97018;-75
2023/08/27 03:03:33;;;;;;;11.70;8.60;;;;;;;18.20;93.79;96611.81;104648;1259;97861;-75
2023/08/27 03:06:01;;;;;;;11.50;8.60;;;;;;;18.19;93.70;96625.64;104533;1274;102322;-74
2023/08/27 03:08:29;;;;;;;9.30;8.30;;;;;;;18.17;93.76;96643.55;104704;1258;99983;-74
2023/08/27 03:10:56;;;;;;;8.70;7.80;;;;;;;18.16;93.80;96637.87;104763;1267;99915;-74
2023/08/27 03:13:24;;;;;;;10.60;8.30;;;;;;;18.17;94.30;96628.09;104640;1262;96545;-74
2023/08/27 03:15:52;;;;;;;10.00;8.50;;;;;;;18.16;94.50;96634.59;104721;1272;96986;-74
2023/08/27 03:18:19;;;;;;;13.80;8.60;;;;;;;18.17;94.11;96641.48;104740;1269;101259;-74
2023/08/27 03:20:47;;;;;;;10.20;8.90;;;;;;;18.20;94.15;96648.58;104722;1259;101938;-75
2023/08/27 03:23:15;;;;;;;10.00;8.70;;;;;;;18.23;94.13;96652.00;104677;1258;99844;-74
2023/08/27 03:25:42;;;;;;;50.60;9.50;;;;;;;18.22;94.28;96655.07;104691;1277;96618;-75
2023/08/27 03:28:10;;;;;;;9.90;8.10;;;;;;;18.20;94.20;96650.16;104625;1258;97650;-75
2023/08/27 03:30:40;;;;;;;15.10;9.00;;;;;;;18.19;94.40;96644.37;104717;1260;102304;-83
2023/08/27 03:33:08;;;;;;;14.10;8.60;;;;;;;18.17;94.92;96633.13;104698;1261;100366;-83
2023/08/27 03:35:36;;;;;;;11.00;9.10;;;;;;;18.16;94.66;96623.45;104644;1260;99657;-83
2023/08/27 03:38:04;;;;;;;11.00;9.10;;;;;;;18.18;94.47;96615.42;104700;1258;98059;-83
2023/08/27 03:40:32;;;;;;;10.00;9.00;;;;;;;18.21;94.43;96620.71;104646;1255;97870;-75
2023/08/27 03:42:59;;;;;;;10.70;8.70;;;;;;;18.23;94.47;96621.84;104715;1271;100715;-86
2023/08/27 03:45:27;;;;;;;10.40;9.10;;;;;;;18.22;94.62;96616.23;104773;1254;100102;-75
2023/08/27 03:47:55;;;;;;;9.50;8.60;;;;;;;18.23;94.47;96611.58;104683;1258;99412;-75
2023/08/27 03:50:22;;;;;;;9.70;8.60;;;;;;;18.24;94.30;96611.73;104675;1259;96812;-75
2023/08/27 03:52:50;;;;;;;13.50;8.70;;;;;;;18.26;94.48;96610.08;104725;1255;96613;-75
2023/08/27 03:55:19;;;;;;;9.90;8.70;;;;;;;18.26;94.47;96605.77;104759;1260;101242;-75
2023/08/27 03:57:46;;;;;;;11.90;8.30;;;;;;;18.24;94.33;96604.19;104673;1271;99926;-74
2023/08/27 04:00:14;;;;;;;9.00;8.10;;;;;;;18.23;94.39;96599.94;104701;1262;99945;-75
2023/08/27 04:02:44;;;;;;;11.50;8.50;;;;;;;18.19;94.69;96596.13;104661;1271;97992;-77
2023/08/27 04:05:12;;;;;;;11.20;8.50;;;;;;;18.13;94.71;96595.27;104564;1256;97247;-76
2023/08/27 04:07:40;;;;;;;13.80;9.70;;;;;;;18.09;95.00;96598.41;104705;1261;102174;-76
2023/08/27 04:10:08;;;;;;;15.10;11.40;;;;;;;18.06;95.01;96600.77;104651;1262;100236;-76
2023/08/27 04:12:36;;;;;;;16.80;11.70;;;;;;;18.06;95.08;96606.89;104642;1262;100181;-73
2023/08/27 04:15:04;;;;;;;17.40;11.70;;;;;;;18.06;94.87;96605.25;104614;1262;96945;-73
2023/08/27 04:17:32;;;;;;;15.90;10.90;;;;;;;18.04;94.95;96603.11;104685;1256;96716;-77
2023/08/27 04:19:59;;;;;;;14.80;10.50;;;;;;;18.05;94.91;96604.33;104632;1264;101312;-76
2023/08/27 04:22:27;;;;;;;15.40;9.90;;;;;;;18.07;94.82;96611.15;104697;1262;101657;-77
2023/08/27 04:24:56;;;;;;;18.30;10.10;;;;;;;18.09;94.73;96614.91;104601;1257;100259;-77
2023/08/27 04:27:23;;;;;;;11.40;9.80;;;;;;;18.11;94.67;96621.25;104633;1271;97439;-77
2023/08/27 04:29:52;;;;;;;10.80;9.10;;;;;;;18.09;94.73;96619.06;104684;1262;97244;-77
2023/08/27 04:32:20;;;;;;;10.20;9.20;;;;;;;18.06;94.77;96620.38;104719;1258;102175;-77
2023/08/27 04:34:47;;;;;;;11.20;8.90;;;;;;;18.06;94.71;96624.80;104737;1269;108976;-77
2023/08/27 04:37:15;;;;;;;9.90;8.90;;;;;;;18.08;94.89;96624.90;104680;1260;100086;-73
2023/08/27 04:39:43;;;;;;;10.90;8.90;;;;;;;18.10;94.86;96628.18;104666;1255;97162;-81
2023/08/27 04:42:10;;;;;;;10.00;9.00;;;;;;;18.12;94.95;96623.58;104703;1262;97004;-81
2023/08/27 04:44:38;;;;;;;9.40;8.40;;;;;;;18.14;94.71;96616.41;104671;1260;100973;-81
2023/08/27 04:47:06;;;;;;;8.80;8.00;;;;;;;18.15;94.70;96610.78;104731;1258;100440;-76
2023/08/27 04:49:33;;;;;;;13.20;9.10;;;;;;;18.14;94.71;96611.98;104764;1260;99058;-77
2023/08/27 04:52:03;;;;;;;10.70;9.60;;;;;;;18.12;94.78;96612.48;104642;1260;97134;-77
2023/08/27 04:54:31;;;;;;;11.30;9.60;;;;;;;18.09;94.77;96607.38;104636;1262;97903;-77
2023/08/27 04:56:59;;;;;;;11.70;10.30;;;;;;;18.10;94.92;96605.68;104690;1259;101887;-76
2023/08/27 04:59:26;;;;;;;10.30;9.30;;;;;;;18.13;95.04;96605.16;104741;1254;101461;-77
2023/08/27 05:01:55;;;;;;;10.40;8.60;;;;;;;18.12;95.06;96600.95;104738;1268;108104;-77
2023/08/27 05:04:23;;;;;;;10.70;9.60;;;;;;;18.11;95.04;96603.77;104654;1259;97174;-77
2023/08/27 05:06:51;;;;;;;11.00;8.60;;;;;;;18.11;95.17;96598.85;104708;1260;98459;-78
2023/08/27 05:09:19;;;;;;;12.40;8.80;;;;;;;18.12;95.23;96597.30;104668;1261;101264;-78
2023/08/27 05:11:46;;;;;;;9.80;8.60;;;;;;;18.16;95.33;96601.76;104714;1260;101634;-78
2023/08/27 05:14:14;;;;;;;14.30;10.50;;;;;;;18.20;95.35;96604.38;104653;1261;99880;-78
2023/08/27 05:16:42;;;;;;;14.90;11.70;;;;;;;18.23;95.20;96599.92;104627;1260;97408;-81
2023/08/27 05:19:09;;;;;;;15.20;11.10;;;;;;;18.28;95.25;96600.45;104707;1270;96611;-81
2023/08/27 05:21:37;;;;;;;13.10;11.70;;;;;;;18.33;95.27;96594.05;104714;1260;101188;-80
2023/08/27 05:24:05;;;;;;;11.90;10.50;;;;;;;18.37;95.41;96594.73;104756;1261;101502;-80
2023/08/27 05:26:33;;;;;;;14.00;10.40;;;;;;;18.41;95.37;96598.92;104755;1259;100369;-80
2023/08/27 05:29:01;;;;;;;12.40;11.10;;;;;;;18.46;95.43;96601.21;104690;1258;97149;-80
2023/08/27 05:31:28;;;;;;;12.30;11.10;;;;;;;18.51;95.41;96601.44;104675;1258;98177;-81
2023/08/27 05:33:56;;;;;;;12.70;11.10;;;;;;;18.55;95.37;96595.48;104680;1261;102495;-80
2023/08/27 05:36:24;;;;;;;15.90;12.10;;;;;;;18.59;95.48;96596.89;104726;1267;100294;-81
2023/08/27 05:38:51;;;;;;;12.80;11.40;;;;;;;18.64;95.53;96596.44;104653;1261;98855;-81
2023/08/27 05:41:19;;;;;;;12.90;10.40;;;;;;;18.68;95.64;96598.00;104660;1260;96569;-80
2023/08/27 05:43:49;;;;;;;14.20;11.10;;;;;;;18.73;95.76;96596.92;104666;1260;97606;-80
2023/08/27 05:46:16;;;;;;;11.70;10.60;;;;;;;18.77;95.88;96598.59;104740;1276;101311;-74
2023/08/27 05:48:44;;;;;;;12.20;10.50;;;;;;;18.83;95.78;96604.91;104742;1274;101349;-74
2023/08/27 05:51:11;;;;;;;12.30;10.10;;;;;;;18.88;95.73;96607.23;104694;1259;107791;-74
2023/08/27 05:53:39;;;;;;;10.70;9.50;;;;;;;18.91;95.72;96604.52;104648;1257;97932;-74
2023/08/27 05:56:07;;;;;;;11.10;10.10;;;;;;;18.96;95.73;96600.83;104692;1260;97061;-74
2023/08/27 05:58:35;;;;;;;10.30;9.20;;;;;;;18.99;95.67;96594.83;104652;1262;101961;-74
2023/08/27 06:01:03;;;;;;;9.60;7.80;;;;;;;19.04;95.75;96585.30;104655;1269;101357;-74
2023/08/27 06:03:31;;;;;;;9.60;8.40;;;;;;;19.08;95.56;96581.37;104677;1269;99930;-74
2023/08/27 06:05:59;;;;;;;9.80;8.00;;;;;;;19.13;95.64;96586.75;104671;1261;97916;-74
2023/08/27 06:08:26;;;;;;;8.70;7.80;;;;;;;19.17;95.57;96583.34;104707;1270;97091;-74
2023/08/27 06:10:54;;;;;;;10.40;8.40;;;;;;;19.19;95.44;96583.87;104663;1278;101384;-74
2023/08/27 06:13:22;;;;;;;8.20;7.20;;;;;;;19.22;95.42;96586.95;104657;1265;100168;-79
2023/08/27 06:15:50;;;;;;;9.10;8.20;;;;;;;19.26;95.80;96587.24;104726;1259;100137;-74
2023/08/27 06:18:17;;;;;;;12.00;7.70;;;;;;;19.32;95.88;96587.20;104678;1262;97145;-74
2023/08/27 06:20:45;;;;;;;9.50;8.00;;;;;;;19.37;95.74;96585.17;104683;1271;97804;-74
2023/08/27 06:23:13;;;;;;;8.20;7.30;;;;;;;19.41;95.23;96577.38;104740;1256;101329;-74
2023/08/27 06:25:41;;;;;;;7.80;7.00;;;;;;;19.44;95.02;96574.84;104494;1264;100426;-74
2023/08/27 06:28:09;;;;;;;8.40;7.40;;;;;;;19.49;95.10;96573.11;104682;1261;100055;-74
2023/08/27 06:30:41;;;;;;;8.30;6.60;;;;;;;19.54;94.97;96567.50;104519;1273;96656;-74
2023/08/27 06:33:11;;;;;;;;;;;;;;;19.59;95.00;96568.42;104754;1268;96675;-74
2023/08/27 06:35:39;;;;;;;7.80;7.00;;;;;;;19.62;95.01;96567.47;104773;1258;102300;-74
2023/08/27 06:38:07;;;;;;;10.50;6.50;;;;;;;19.65;95.00;96568.37;104709;1269;101358;-74
2023/08/27 06:40:34;;;;;;;7.50;6.50;;;;;;;19.68;94.59;96569.60;104693;1260;100025;-74
2023/08/27 06:43:02;;;;;;;8.10;7.20;;;;;;;19.72;94.49;96574.64;104686;1261;96584;-74
2023/08/27 06:45:30;;;;;;;8.30;6.80;;;;;;;19.77;94.72;96572.67;104484;1265;97437;-79
2023/08/27 06:47:58;;;;;;;8.20;6.90;;;;;;;19.84;94.94;96569.59;104705;1273;101933;-79
2023/08/27 06:50:26;;;;;;;8.60;6.80;;;;;;;19.92;95.08;96574.21;104669;1270;100133;-79
2023/08/27 06:52:54;;;;;;;7.20;6.50;;;;;;;19.99;94.94;96571.39;104727;1261;99955;-74
2023/08/27 06:55:22;;;;;;;8.00;6.80;;;;;;;20.09;94.90;96568.38;104709;1259;96953;-75
2023/08/27 06:57:50;;;;;;;8.00;6.80;;;;;;;20.21;94.80;96571.08;104744;1269;96585;-74
2023/08/27 07:00:18;;;;;;;7.70;7.00;;;;;;;20.31;94.43;96574.29;104685;1261;101299;-74
2023/08/27 07:02:49;;;;;;;9.10;7.30;;;;;;;20.40;94.38;96572.83;104736;1258;100081;-75
2023/08/27 07:05:18;;;;;;;7.60;6.50;;;;;;;20.48;94.43;96567.48;104495;1277;100187;-75
2023/08/27 07:07:46;;;;;;;8.40;7.50;;;;;;;20.56;94.49;96567.75;104734;1265;96576;-74
2023/08/27 07:10:14;;;;;;;8.00;7.30;;;;;;;20.62;94.28;96569.54;104815;1261;97818;-75
2023/08/27 07:12:41;;;;;;;7.90;6.90;;;;;;;20.68;94.10;96571.25;104721;1269;101968;-80
2023/08/27 07:15:09;;;;;;;7.20;6.60;;;;;;;20.73;93.82;96571.08;104679;1269;101523;-79
2023/08/27 07:17:38;;;;;;;8.70;7.30;;;;;;;20.79;93.50;96570.27;104703;1268;97736;-74
2023/08/27 07:20:07;;;;;;;7.50;6.90;;;;;;;20.87;93.52;96578.21;104729;1258;97211;-75
2023/08/27 07:22:36;;;;;;;7.30;6.60;;;;;;;20.99;93.79;96579.24;104811;1262;97832;-75
2023/08/27 07:25:05;;;;;;;11.10;7.40;;;;;;;21.12;94.23;96579.27;104677;1262;101407;-75
2023/08/27 07:27:34;;;;;;;7.70;6.90;;;;;;;21.25;94.12;96583.85;104670;1261;100168;-75
2023/08/27 07:30:01;;;;;;;8.10;6.80;;;;;;;21.36;93.53;96591.98;104710;1261;98977;-79
2023/08/27 07:32:29;;;;;;;7.70;6.30;;;;;;;21.46;93.08;96594.23;104652;1268;97787;-80
2023/08/27 07:34:57;;;;;;;7.80;6.20;;;;;;;21.58;92.93;96591.10;104708;1269;97187;-80
2023/08/27 07:37:24;;;;;;;6.40;5.80;;;;;;;21.72;92.52;96591.62;104775;1268;102224;-79
2023/08/27 07:39:52;;;;;;;6.50;5.80;;;;;;;21.80;91.79;96582.23;104755;1270;100557;-79
2023/08/27 07:42:21;;;;;;;6.30;5.70;;;;;;;21.89;91.80;96577.64;104697;1261;109611;-79
2023/08/27 07:44:49;;;;;;;5.90;5.40;;;;;;;22.04;91.58;96578.25;104772;1269;97611;-81
2023/08/27 07:47:17;;;;;;;5.80;5.20;;;;;;;22.14;90.89;96574.91;104696;1260;97022;-79
2023/08/27 07:49:44;;;;;;;6.20;5.60;;;;;;;22.21;90.13;96573.80;104724;1260;101479;-79
2023/08/27 07:52:12;;;;;;;7.00;6.40;;;;;;;22.24;89.97;96573.02;104784;1269;101133;-80
2023/08/27 07:54:40;;;;;;;6.70;5.90;;;;;;;22.29;89.88;96570.33;104778;1271;99270;-80
2023/08/27 07:57:07;;;;;;;8.20;6.00;;;;;;;22.34;89.87;96569.21;104724;1261;96979;-81
2023/08/27 07:59:36;;;;;;;6.60;5.90;;;;;;;22.37;89.60;96570.96;104748;1267;97084;-81
2023/08/27 08:02:04;;;;;;;7.10;6.40;;;;;;;22.40;89.20;96569.64;104786;1269;102273;-75
2023/08/27 08:04:32;;;;;;;7.10;5.90;;;;;;;22.44;89.08;96571.89;104603;1269;100414;-75
2023/08/27 08:06:59;;;;;;;6.40;5.60;;;;;;;22.53;89.06;96570.65;104592;1278;100183;-75
2023/08/27 08:09:27;;;;;;;7.20;6.20;;;;;;;22.60;88.87;96575.48;104499;1263;96687;-80
2023/08/27 08:11:55;;;;;;;7.30;6.60;;;;;;;22.68;88.98;96572.25;104490;1271;97492;-80
2023/08/27 08:14:22;;;;;;;7.70;6.10;;;;;;;22.87;88.87;96570.59;104600;1269;102211;-81
2023/08/27 08:16:52;;;;;;;7.60;6.60;;;;;;;23.13;88.29;96575.74;104673;1269;100581;-81
2023/08/27 08:19:21;;;;;;;7.20;6.50;;;;;;;23.24;87.61;96578.06;104646;1272;100350;-81
2023/08/27 08:21:48;;;;;;;7.80;6.20;;;;;;;23.48;87.36;96573.48;104571;1262;97815;-80
2023/08/27 08:24:16;;;;;;;7.10;5.90;;;;;;;23.67;86.24;96571.17;104584;1261;98185;-81
2023/08/27 08:26:44;;;;;;;6.30;5.70;;;;;;;23.78;85.90;96571.04;104560;1266;102277;-80
2023/08/27 08:29:11;;;;;;;6.40;5.80;;;;;;;23.89;85.57;96570.73;104516;1270;101052;-81
2023/08/27 08:31:39;;;;;;;6.70;6.10;;;;;;;24.09;85.83;96569.54;104519;1262;98943;-82
2023/08/27 08:34:07;;;;;;;7.40;5.90;;;;;;;24.37;85.07;96566.74;104578;1269;96818;-80
2023/08/27 08:36:34;;;;;;;6.80;6.10;;;;;;;24.47;83.73;96564.58;104678;1272;97174;-81
2023/08/27 08:39:02;;;;;;;6.10;5.50;;;;;;;24.61;83.83;96559.28;104621;1264;110743;-82
2023/08/27 08:41:30;;;;;;;5.90;5.20;;;;;;;24.94;83.17;96550.64;104679;1278;101619;-81
2023/08/27 08:44:07;;;;;;;6.80;5.70;;;;;;;25.28;82.32;96547.81;104675;1260;99090;-82
2023/08/27 08:46:38;;;;;;;7.60;5.80;;;;;;;25.66;81.37;96548.36;104647;1260;97874;-83
2023/08/27 08:49:14;;;;;;;6.40;5.60;;;;;;;25.95;80.14;96548.38;104737;1278;96566;-82
2023/08/27 08:51:42;;;;;;;5.80;5.30;;;;;;;26.23;78.97;96556.80;104643;1261;102387;-79
2023/08/27 08:54:15;;;;;;;7.70;5.70;;;;;;;26.47;77.85;96555.30;104692;1263;100423;-82
2023/08/27 08:56:48;;;;;;;5.30;4.70;;;;;;;26.73;77.06;96548.27;104514;1277;99368;-83
2023/08/27 08:59:16;;;;;;;6.10;5.60;;;;;;;26.99;76.79;96541.83;104800;1260;97222;-83
2023/08/27 09:01:44;;;;;;;5.60;4.70;;;;;;;27.22;76.41;96538.53;104734;1260;96631;-84
2023/08/27 09:04:14;;;;;;;7.10;4.60;;;;;;;27.42;74.96;96535.85;104560;1263;102460;-83
2023/08/27 09:06:43;;;;;;;5.90;5.30;;;;;;;27.65;75.58;96542.61;104762;1262;101377;-83
2023/08/27 09:09:11;;;;;;;6.00;5.20;;;;;;;27.84;74.11;96541.51;104634;1262;100088;-75
2023/08/27 09:11:39;;;;;;;5.80;5.10;;;;;;;27.80;68.47;96536.27;104800;1269;96962;-75
2023/08/27 09:14:07;;;;;;;6.10;5.40;;;;;;;27.60;71.03;96534.05;104709;1259;96850;-75
2023/08/27 09:16:35;;;;;;;10.20;5.90;;;;;;;27.62;72.66;96533.50;104858;1268;100831;-75
2023/08/27 09:19:03;;;;;;;5.30;4.80;;;;;;;27.82;72.19;96527.17;104866;1258;101807;-75
2023/08/27 09:21:30;;;;;;;5.30;4.90;;;;;;;27.97;70.96;96525.63;104741;1259;100004;-75
2023/08/27 09:23:59;;;;;;;5.70;4.90;;;;;;;28.11;71.68;96525.36;104732;1259;97906;-75
2023/08/27 09:26:26;;;;;;;6.10;5.30;;;;;;;28.35;71.36;96521.45;104799;1262;97075;-75
2023/08/27 09:28:55;;;;;;;6.70;5.20;;;;;;;28.57;69.06;96515.55;104720;1268;100740;-75
2023/08/27 09:31:40;;;;;;;6.00;5.50;;;;;;;28.64;67.98;96512.36;104798;1264;101453;-75
2023/08/27 09:34:09;;;;;;;6.00;5.20;;;;;;;28.70;67.76;96511.44;104660;1272;97780;-75
2023/08/27 09:36:38;;;;;;;7.30;4.90;;;;;;;28.84;68.61;96508.02;104679;1269;98123;-76
2023/08/27 09:39:11;;;;;;;6.40;5.70;;;;;;;28.95;67.33;96498.52;104592;1269;98072;-75
2023/08/27 09:41:41;;;;;;;6.30;5.30;;;;;;;29.02;67.77;96496.48;104726;1260;101337;-76
2023/08/27 09:44:10;;;;;;;6.70;5.40;;;;;;;29.18;67.47;96497.17;104705;1260;100361;-73
2023/08/27 09:46:38;;;;;;;6.00;5.20;;;;;;;29.22;64.92;96495.30;104630;1272;100344;-78
2023/08/27 09:49:08;;;;;;;6.70;6.10;;;;;;;28.96;64.59;96488.29;104497;1271;98053;-78
2023/08/27 09:51:38;;;;;;;7.90;5.60;;;;;;;28.88;65.99;96485.83;104804;1255;97182;-79
2023/08/27 09:54:15;;;;;;;7.20;5.60;;;;;;;28.75;65.57;96487.40;104700;1269;101368;-78
2023/08/27 09:56:48;;;;;;;7.70;5.70;;;;;;;28.64;66.03;96487.45;104797;1260;101521;-78
2023/08/27 09:59:21;;;;;;;6.50;5.90;;;;;;;28.62;66.08;96489.05;104733;1258;100334;-79
2023/08/27 10:01:50;;;;;;;5.90;5.40;;;;;;;28.68;66.35;96488.69;104809;1259;96535;-79
2023/08/27 10:04:19;;;;;;;6.00;5.20;;;;;;;28.70;66.55;96487.02;104781;1268;97079;-79
2023/08/27 10:06:47;;;;;;;5.90;5.30;;;;;;;28.77;66.71;96484.36;104770;1268;101376;-79
2023/08/27 10:09:16;;;;;;;6.70;5.80;;;;;;;28.88;66.72;96479.71;104592;1260;100052;-79
2023/08/27 10:11:46;;;;;;;8.60;6.20;;;;;;;28.90;66.23;96477.63;104683;1257;99950;-79
2023/08/27 10:14:16;;;;;;;6.10;5.50;;;;;;;28.85;66.32;96480.67;104714;1258;97365;-80
2023/08/27 10:16:43;;;;;;;7.10;5.10;;;;;;;28.89;66.09;96476.66;104805;1271;97471;-79
2023/08/27 10:19:13;;;;;;;5.50;5.00;;;;;;;29.05;66.28;96474.49;104722;1262;101376;-79
2023/08/27 10:21:40;;;;;;;6.10;5.20;;;;;;;29.25;66.09;96474.03;104543;1258;101405;-80
2023/08/27 10:24:10;;;;;;;5.60;5.10;;;;;;;29.43;65.62;96473.45;104779;1260;98188;-74
2023/08/27 10:26:39;;;;;;;5.50;5.00;;;;;;;29.59;64.69;96471.26;104767;1269;97906;-74
2023/08/27 10:29:07;;;;;;;8.40;5.20;;;;;;;29.67;64.51;96468.09;104538;1265;97278;-74
2023/08/27 10:31:37;;;;;;;7.00;5.50;;;;;;;29.77;64.30;96465.78;104536;1264;101283;-74
2023/08/27 10:34:07;;;;;;;6.50;5.10;;;;;;;29.89;64.41;96462.27;104520;1273;100589;-75
2023/08/27 10:36:38;;;;;;;5.80;5.30;;;;;;;30.00;64.22;96454.23;104476;1274;100047;-75
2023/08/27 10:39:07;;;;;;;5.90;5.30;;;;;;;30.08;63.64;96451.73;104479;1263;97347;-75
2023/08/27 10:41:35;;;;;;;6.20;5.50;;;;;;;30.17;62.99;96445.42;104553;1272;97143;-79
2023/08/27 10:44:04;;;;;;;6.00;5.40;;;;;;;30.22;62.58;96442.83;104471;1267;101577;-79
2023/08/27 10:46:32;;;;;;;5.30;4.80;;;;;;;30.23;62.62;96437.45;104341;1261;101386;-85
2023/08/27 10:49:01;;;;;;;6.10;5.50;;;;;;;30.25;62.88;96435.66;104418;1276;99956;-84
2023/08/27 10:51:32;;;;;;;8.30;6.10;;;;;;;30.36;62.74;96437.38;104433;1264;97233;-84
2023/08/27 10:54:04;;;;;;;7.70;5.90;;;;;;;30.48;62.79;96436.42;104495;1277;97468;-85
2023/08/27 10:56:32;;;;;;;6.00;5.40;;;;;;;30.58;62.65;96439.55;104453;1273;102281;-83
2023/08/27 10:59:01;;;;;;;7.60;6.30;;;;;;;30.61;61.94;96436.04;104479;1274;101501;-80
2023/08/27 11:01:30;;;;;;;6.70;6.00;;;;;;;30.59;61.34;96429.00;104593;1264;100339;-83
2023/08/27 11:04:08;;;;;;;7.80;5.40;;;;;;;30.58;61.39;96428.81;104448;1263;97931;-82
2023/08/27 11:06:48;;;;;;;5.80;5.30;;;;;;;30.59;61.66;96426.38;104456;1262;98445;-81
2023/08/27 11:09:23;;;;;;;7.30;6.20;;;;;;;30.64;60.94;96416.86;104544;1264;101011;-80
2023/08/27 11:11:53;;;;;;;6.50;5.70;;;;;;;30.63;61.23;96413.34;104773;1258;101051;-81
2023/08/27 11:14:23;;;;;;;5.90;5.30;;;;;;;30.69;61.37;96414.96;104622;1257;100301;-80
2023/08/27 11:17:03;;;;;;;6.90;6.20;;;;;;;30.79;61.58;96413.83;104869;1260;96828;-80
2023/08/27 11:19:36;;;;;;;8.10;6.00;;;;;;;30.83;60.79;96408.89;104840;1260;97799;-81
2023/08/27 11:22:14;;;;;;;7.40;6.50;;;;;;;30.80;60.28;96407.95;104759;1269;101711;-82
2023/08/27 11:24:53;;;;;;;7.90;6.30;;;;;;;30.80;59.89;96406.92;104757;1260;101686;-82